Etusivu
METAR-TAF:

METAR-TAF

Lentoasemat :

Flag Island, Minnesota, Yhdysvallat

Leveyspiiri: 49-19N, Pituuspiiri: 094-54W, korkeus merenpinnasta: 329 m

Tämänhetkinen sää

Tämä raportti tehtiin 19 minuuttia sitten, kello 16.35 UTC
Tuuli 3 kn lännestä
Lämpötila 3°C
Kosteus 75%
Ilmanpaine 1019 hPa
Näkyvyys: 16.1 km

METAR: KFGN 161635Z AUTO 27003KT 10SM 03/M01 A3009 RMK AO2

Aika: 11:54 (16:54 UTC)


TAF: puuttuu

Säähavainnot ja -ennusteet yli 4000 lentoasemalta (METAR- ja TAF-raportit).

Käytössä olevat sääasemat on merkitty karttaan keltaisilla ja punaisilla pisteillä.

Aseta hiiri pisteen päälle nähdäksesi sääaseman nimen.

Klikkaa sitten nähdäksesi säähavainnot ja -ennusteet.

Kartan vaihtaminen: klikkaa mustalla rastilla varustettuja vihreitä pisteitä, niin voit zoomata sisään; viivalla varustettua vihreää pistettä, niin voit zoomata ulos tai vihreitä nuolia, niin pääset viereisille kartoille.


METAR-TAF: